Dewitt, Illinois
Current Conditions -  °F | °C
As of 2:56 PM on Friday 24 Oct 2014 (Local Time) from KBMI Reporting Station
Light Rain Light Rain  
Wind Chill: 69°   Ceiling: Unl
Heat Index: 69°   Visibility: 10mi
Dew Point: 50°   Wind: 9mph
Humidity: 51%   Direction: 220°SW
Pressure: 30.01"   Gusts: NA
Location:  40.18°N, 88.79°W
Report Text: KBMI 241956Z 22008KT 10SM -RA CLR 21/10 A3001 RMK AO2 T02050100 RAB39 P0000 SLP161
Loading
Personal Weather Stations






























Interactive Weather Map
Tropical Storm Tracking
New forecast layout! Learn more

10-Day Weather Forecast

Advertisements
Track Severe Weather on mobile